Time;durP1;ratioP1;P1;durP2;ratioP2;P2;SDS_P1;SDS_P2;PMS_P1;PMS_P2;Temp;Humidity;BMP_temperature;BMP_pressure;BME280_temperature;BME280_humidity;BME280_pressure;Samples;Min_cycle;Max_cycle;Signal;HPM_P1;HPM_P2
2024/01/13 00:00:26;;;;;;;25.42;13.98;;;1.10;81.90;;;;;;4990035;28;20204;-77
2024/01/13 00:02:54;;;;;;;23.05;13.65;;;1.10;81.90;;;;;;4990962;28;20626;-77
2024/01/13 00:05:23;;;;;;;27.92;14.68;;;1.10;82.00;;;;;;4990828;28;20220;-77
2024/01/13 00:07:51;;;;;;;24.30;14.05;;;1.10;82.10;;;;;;4987912;28;20642;-77
2024/01/13 00:10:19;;;;;;;26.30;14.27;;;1.10;82.00;;;;;;4989970;28;20238;-76
2024/01/13 00:12:47;;;;;;;23.42;14.18;;;1.10;82.00;;;;;;4991694;28;20704;-76
2024/01/13 00:15:19;;;;;;;23.10;14.27;;;1.10;82.10;;;;;;4988052;28;20218;-77
2024/01/13 00:17:49;;;;;;;27.33;15.13;;;1.10;82.00;;;;;;4982554;28;20236;-76
2024/01/13 00:20:17;;;;;;;26.40;14.23;;;1.10;82.00;;;;;;4999848;28;20213;-76
2024/01/13 00:22:50;;;;;;;24.15;13.55;;;1.20;82.00;;;;;;4988500;28;20207;-76
2024/01/13 00:25:18;;;;;;;24.60;12.88;;;1.10;82.00;;;;;;4985101;28;20206;-76
2024/01/13 00:27:46;;;;;;;26.05;15.20;;;1.10;82.00;;;;;;4989113;28;20238;-77
2024/01/13 00:30:15;;;;;;;26.35;15.95;;;1.10;82.00;;;;;;4985736;28;20258;-76
2024/01/13 00:32:43;;;;;;;28.95;15.98;;;1.10;82.00;;;;;;5019556;28;20300;-76
2024/01/13 00:35:12;;;;;;;26.80;16.05;;;1.20;82.00;;;;;;5005877;28;20215;-76
2024/01/13 00:37:40;;;;;;;27.42;14.50;;;1.10;82.00;;;;;;5005677;28;20236;-77
2024/01/13 00:40:10;;;;;;;27.35;16.30;;;1.20;82.00;;;;;;5006141;28;20536;-76
2024/01/13 00:42:38;;;;;;;27.58;15.73;;;1.20;82.00;;;;;;5004695;28;20210;-77
2024/01/13 00:45:07;;;;;;;28.10;16.25;;;1.20;82.00;;;;;;5002300;28;20975;-76
2024/01/13 00:47:35;;;;;;;28.48;16.70;;;1.20;81.90;;;;;;5005349;28;20536;-76
2024/01/13 00:50:04;;;;;;;26.85;14.90;;;1.20;81.90;;;;;;5004775;28;20228;-76
2024/01/13 00:52:32;;;;;;;25.60;15.15;;;1.20;82.00;;;;;;5018006;28;20301;-76
2024/01/13 00:55:00;;;;;;;25.70;15.13;;;1.20;82.00;;;;;;5016449;28;20208;-77
2024/01/13 00:57:30;;;;;;;30.58;15.73;;;1.20;82.00;;;;;;5003420;28;20202;-78
2024/01/13 00:59:58;;;;;;;30.85;15.80;;;1.20;82.00;;;;;;5004319;28;20209;-77
2024/01/13 01:02:26;;;;;;;31.08;16.88;;;1.20;82.00;;;;;;5011816;28;20231;-78
2024/01/13 01:04:54;;;;;;;24.83;14.30;;;1.20;82.00;;;;;;5005742;28;20209;-78
2024/01/13 01:07:22;;;;;;;26.58;14.20;;;1.20;82.00;;;;;;5015222;28;20534;-78
2024/01/13 01:09:50;;;;;;;26.10;15.18;;;1.20;82.00;;;;;;5000787;28;20591;-76
2024/01/13 01:12:18;;;;;;;29.83;16.15;;;1.20;82.00;;;;;;5005069;28;20217;-76
2024/01/13 01:14:49;;;;;;;25.95;15.70;;;1.20;82.00;;;;;;5016563;28;20820;-76
2024/01/13 01:17:17;;;;;;;26.98;15.57;;;1.20;82.00;;;;;;5000511;28;20911;-76
2024/01/13 01:19:45;;;;;;;29.45;15.45;;;1.20;82.00;;;;;;5001253;28;20255;-76
2024/01/13 01:22:13;;;;;;;28.60;16.60;;;1.20;82.00;;;;;;5016451;28;20264;-76
2024/01/13 01:24:41;;;;;;;31.55;16.95;;;1.30;82.00;;;;;;5004115;28;20238;-76
2024/01/13 01:27:10;;;;;;;29.63;15.77;;;1.20;81.90;;;;;;5010195;28;20295;-76
2024/01/13 01:29:38;;;;;;;31.98;17.17;;;1.20;81.90;;;;;;5003057;28;20229;-76
2024/01/13 01:32:08;;;;;;;29.02;17.48;;;1.20;82.00;;;;;;4988271;28;20231;-76
2024/01/13 01:34:36;;;;;;;35.08;17.77;;;1.20;81.90;;;;;;4996554;28;20692;-77
2024/01/13 01:37:04;;;;;;;30.42;17.33;;;1.30;82.00;;;;;;4984342;28;20223;-76
2024/01/13 01:39:32;;;;;;;28.92;17.00;;;1.30;81.90;;;;;;4982113;28;20205;-76
2024/01/13 01:42:00;;;;;;;33.25;18.23;;;1.30;82.00;;;;;;4981496;28;20204;-76
2024/01/13 01:44:28;;;;;;;27.92;16.90;;;1.30;81.90;;;;;;4983374;28;20212;-76
2024/01/13 01:47:00;;;;;;;31.15;17.75;;;1.30;81.90;;;;;;4982935;28;20205;-76
2024/01/13 01:49:32;;;;;;;28.30;16.23;;;1.30;81.90;;;;;;4983556;28;20554;-76
2024/01/13 01:52:01;;;;;;;32.08;16.98;;;1.20;81.90;;;;;;4984708;28;20241;-76
2024/01/13 01:54:29;;;;;;;29.95;16.48;;;1.20;81.90;;;;;;4981626;28;20230;-76
2024/01/13 01:56:59;;;;;;;32.08;18.05;;;1.20;81.90;;;;;;4986004;28;20225;-78
2024/01/13 01:59:29;;;;;;;29.38;16.60;;;1.20;82.00;;;;;;5000244;28;20217;-78
2024/01/13 02:01:59;;;;;;;34.67;18.17;;;1.20;82.00;;;;;;4983555;28;20630;-78
2024/01/13 02:04:29;;;;;;;30.85;17.40;;;1.30;82.00;;;;;;4985120;28;20197;-79
2024/01/13 02:06:57;;;;;;;33.85;18.10;;;1.30;82.00;;;;;;4983183;28;20650;-78
2024/01/13 02:09:30;;;;;;;30.83;18.02;;;1.30;82.00;;;;;;4985637;28;20209;-77
2024/01/13 02:11:58;;;;;;;33.03;16.55;;;1.30;82.00;;;;;;4982704;28;20215;-78
2024/01/13 02:14:29;;;;;;;34.45;16.95;;;1.30;81.90;;;;;;4992037;28;20245;-77
2024/01/13 02:16:58;;;;;;;29.10;16.83;;;1.30;82.00;;;;;;4987612;28;20212;-77
2024/01/13 02:19:33;;;;;;;33.08;18.50;;;1.30;81.90;;;;;;4990004;28;20574;-76
2024/01/13 02:22:02;;;;;;;33.30;17.60;;;1.30;82.00;;;;;;4987863;28;20213;-78
2024/01/13 02:24:30;;;;;;;31.67;16.48;;;1.30;82.00;;;;;;4987838;28;20263;-76
2024/01/13 02:26:58;;;;;;;30.63;16.50;;;1.30;82.00;;;;;;4989487;28;20222;-77
2024/01/13 02:29:26;;;;;;;31.73;16.60;;;1.30;82.00;;;;;;4993557;28;20264;-77
2024/01/13 02:31:55;;;;;;;35.67;17.25;;;1.30;82.00;;;;;;4989424;28;20701;-77
2024/01/13 02:34:25;;;;;;;27.15;15.93;;;1.30;82.00;;;;;;4985584;28;20209;-77
2024/01/13 02:36:53;;;;;;;37.58;18.70;;;1.30;82.00;;;;;;4992896;28;20665;-77
2024/01/13 02:39:22;;;;;;;31.88;16.83;;;1.30;82.00;;;;;;4987226;28;20204;-78
2024/01/13 02:41:50;;;;;;;34.20;18.05;;;1.30;82.00;;;;;;4985343;28;20249;-76
2024/01/13 02:44:18;;;;;;;37.58;18.63;;;1.30;82.00;;;;;;4989669;28;20276;-76
2024/01/13 02:46:46;;;;;;;33.40;17.83;;;1.30;82.00;;;;;;4993056;28;20227;-76
2024/01/13 02:49:15;;;;;;;35.58;19.25;;;1.30;82.00;;;;;;4992897;28;20212;-76
2024/01/13 02:51:44;;;;;;;35.58;17.98;;;1.30;82.00;;;;;;4986441;28;20224;-77
2024/01/13 02:54:11;;;;;;;34.45;18.90;;;1.30;82.00;;;;;;4989673;28;20232;-76
2024/01/13 02:56:41;;;;;;;35.45;19.33;;;1.30;82.00;;;;;;4985184;28;20200;-77
2024/01/13 02:59:09;;;;;;;36.17;17.85;;;1.40;82.00;;;;;;4985347;28;20631;-77
2024/01/13 03:01:38;;;;;;;31.50;17.38;;;1.30;82.00;;;;;;4983155;28;20236;-77
2024/01/13 03:04:06;;;;;;;32.50;17.50;;;1.30;82.00;;;;;;4995065;28;20210;-76
2024/01/13 03:06:34;;;;;;;33.83;17.63;;;1.40;82.00;;;;;;4993586;28;20210;-77
2024/01/13 03:09:03;;;;;;;31.60;16.83;;;1.40;82.00;;;;;;4986349;28;20199;-77
2024/01/13 03:11:31;;;;;;;38.35;18.95;;;1.40;82.00;;;;;;4985972;28;20233;-76
2024/01/13 03:14:00;;;;;;;34.85;19.20;;;1.40;82.00;;;;;;4988128;28;20312;-77
2024/01/13 03:16:29;;;;;;;31.98;17.58;;;1.40;82.00;;;;;;4984732;28;20624;-77
2024/01/13 03:18:57;;;;;;;36.63;18.58;;;1.40;82.00;;;;;;4998005;28;20214;-77
2024/01/13 03:21:25;;;;;;;36.28;19.90;;;1.40;82.00;;;;;;4984614;28;20207;-77
2024/01/13 03:23:53;;;;;;;36.85;19.65;;;1.40;82.00;;;;;;4988040;28;20202;-77
2024/01/13 03:26:22;;;;;;;36.20;19.25;;;1.40;82.00;;;;;;4992188;28;20219;-77
2024/01/13 03:28:51;;;;;;;38.85;19.58;;;1.40;82.00;;;;;;4989121;28;20243;-77
2024/01/13 03:31:20;;;;;;;41.20;20.25;;;1.40;81.90;;;;;;4986046;28;20322;-77
2024/01/13 03:33:48;;;;;;;37.63;20.67;;;1.30;81.90;;;;;;4995230;28;20303;-77
2024/01/13 03:36:18;;;;;;;42.33;20.60;;;1.30;81.90;;;;;;4987747;28;20244;-77
2024/01/13 03:38:48;;;;;;;39.45;20.65;;;1.30;81.90;;;;;;4989454;28;20260;-77
2024/01/13 03:41:19;;;;;;;42.75;20.80;;;1.30;82.00;;;;;;4986998;28;20198;-77
2024/01/13 03:43:47;;;;;;;38.10;19.35;;;1.30;82.10;;;;;;4982980;28;20204;-77
2024/01/13 03:46:15;;;;;;;37.55;21.00;;;1.30;82.10;;;;;;4988756;28;20201;-77
2024/01/13 03:48:45;;;;;;;40.95;21.50;;;1.30;82.10;;;;;;4988833;28;20702;-77
2024/01/13 03:51:13;;;;;;;40.10;19.90;;;1.30;82.10;;;;;;4986623;28;20241;-77
2024/01/13 03:53:43;;;;;;;41.10;20.27;;;1.30;82.20;;;;;;4986172;28;20316;-77
2024/01/13 03:56:11;;;;;;;40.92;18.80;;;1.30;82.20;;;;;;4986379;28;20288;-77
2024/01/13 03:58:40;;;;;;;38.15;18.63;;;1.30;82.10;;;;;;4983522;28;20285;-77
2024/01/13 04:01:09;;;;;;;41.63;19.92;;;1.30;82.20;;;;;;4992101;28;20221;-77
2024/01/13 04:03:38;;;;;;;42.88;19.63;;;1.30;82.20;;;;;;4986575;28;20233;-77
2024/01/13 04:06:08;;;;;;;38.45;19.10;;;1.40;82.20;;;;;;4987046;28;20208;-77
2024/01/13 04:08:37;;;;;;;38.92;19.60;;;1.40;82.20;;;;;;4996540;28;20213;-77
2024/01/13 04:11:08;;;;;;;36.30;19.00;;;1.40;82.20;;;;;;4994477;28;20227;-78
2024/01/13 04:13:38;;;;;;;36.53;18.38;;;1.40;82.20;;;;;;4985939;28;20221;-78
2024/01/13 04:16:07;;;;;;;39.72;20.08;;;1.40;82.10;;;;;;4989142;28;20290;-78
2024/01/13 04:18:36;;;;;;;42.15;19.80;;;1.40;82.10;;;;;;4985338;28;20203;-78
2024/01/13 04:21:07;;;;;;;40.95;19.90;;;1.40;82.10;;;;;;4998590;28;20220;-78
2024/01/13 04:23:50;;;;;;;40.90;20.60;;;1.40;82.10;;;;;;4997677;28;20237;-77
2024/01/13 04:26:19;;;;;;;41.22;19.25;;;1.40;82.10;;;;;;4987831;28;20209;-77
2024/01/13 04:28:47;;;;;;;40.50;18.70;;;1.40;82.00;;;;;;4983619;28;20206;-77
2024/01/13 04:31:16;;;;;;;38.60;17.90;;;1.40;82.00;;;;;;4983339;28;20231;-77
2024/01/13 04:33:44;;;;;;;37.70;18.90;;;1.40;82.10;;;;;;4984674;28;20586;-78
2024/01/13 04:36:14;;;;;;;37.38;17.60;;;1.40;82.10;;;;;;4980705;28;20218;-76
2024/01/13 04:38:43;;;;;;;37.63;17.65;;;1.40;82.00;;;;;;4984192;28;20221;-76
2024/01/13 04:41:11;;;;;;;41.15;18.55;;;1.40;82.00;;;;;;4982677;28;20325;-78
2024/01/13 04:43:39;;;;;;;39.92;19.35;;;1.40;82.10;;;;;;5001011;28;20208;-78
2024/01/13 04:46:07;;;;;;;38.83;18.95;;;1.40;82.10;;;;;;4987113;28;21062;-78
2024/01/13 04:48:36;;;;;;;39.28;20.13;;;1.40;82.10;;;;;;4985318;28;20207;-77
2024/01/13 04:51:04;;;;;;;36.58;17.55;;;1.40;82.10;;;;;;4984030;28;20279;-77
2024/01/13 04:53:33;;;;;;;38.80;19.10;;;1.40;82.00;;;;;;5000367;28;20926;-77
2024/01/13 04:56:02;;;;;;;36.35;17.63;;;1.40;82.00;;;;;;4987291;28;20225;-78
2024/01/13 04:58:30;;;;;;;37.28;18.30;;;1.40;82.00;;;;;;4988617;28;20249;-79
2024/01/13 05:00:58;;;;;;;42.80;19.50;;;1.40;82.00;;;;;;4985644;28;20695;-78
2024/01/13 05:03:26;;;;;;;36.85;18.40;;;1.40;82.00;;;;;;4990008;28;20208;-79
2024/01/13 05:05:55;;;;;;;39.25;18.63;;;1.40;82.00;;;;;;5005672;28;20201;-79
2024/01/13 05:08:23;;;;;;;39.03;17.73;;;1.40;82.00;;;;;;4986133;28;20207;-77
2024/01/13 05:10:53;;;;;;;40.92;18.63;;;1.40;82.00;;;;;;4982348;28;20404;-77
2024/01/13 05:13:21;;;;;;;40.55;19.42;;;1.40;82.00;;;;;;4983743;28;20231;-77
2024/01/13 05:15:49;;;;;;;36.55;18.48;;;1.40;82.00;;;;;;4989046;28;20206;-78
2024/01/13 05:18:17;;;;;;;35.45;18.52;;;1.40;81.90;;;;;;4998271;28;20207;-76
2024/01/13 05:20:45;;;;;;;38.80;19.02;;;1.40;81.90;;;;;;4998907;28;20209;-76
2024/01/13 05:23:13;;;;;;;36.30;19.02;;;1.40;82.00;;;;;;5000524;28;20194;-77
2024/01/13 05:25:41;;;;;;;39.17;19.10;;;1.40;82.00;;;;;;4983241;28;20209;-76
2024/01/13 05:28:10;;;;;;;32.00;17.52;;;1.40;82.00;;;;;;4988263;28;20221;-79
2024/01/13 05:30:38;;;;;;;36.45;17.40;;;1.40;82.00;;;;;;4983367;28;20768;-77
2024/01/13 05:33:07;;;;;;;39.90;18.25;;;1.40;82.00;;;;;;4986199;28;20894;-76
2024/01/13 05:35:34;;;;;;;37.05;18.35;;;1.40;82.00;;;;;;4991181;28;20225;-77
2024/01/13 05:38:02;;;;;;;33.83;16.95;;;1.50;81.90;;;;;;4986435;28;20220;-76
2024/01/13 05:40:30;;;;;;;32.22;17.70;;;1.50;81.90;;;;;;4986351;28;20237;-78
2024/01/13 05:42:58;;;;;;;35.47;17.80;;;1.40;81.90;;;;;;5003546;28;20612;-78
2024/01/13 05:45:28;;;;;;;37.60;17.65;;;1.40;81.90;;;;;;4989907;28;20220;-78
2024/01/13 05:47:56;;;;;;;40.30;18.08;;;1.40;81.90;;;;;;4985280;28;20292;-78
2024/01/13 05:50:26;;;;;;;33.20;17.85;;;1.40;81.90;;;;;;5007943;28;20208;-77
2024/01/13 05:52:54;;;;;;;33.70;18.67;;;1.40;81.70;;;;;;4990848;28;20247;-77
2024/01/13 05:55:23;;;;;;;37.30;19.15;;;1.40;81.70;;;;;;4991321;28;20648;-77
2024/01/13 05:57:53;;;;;;;38.50;18.73;;;1.30;81.80;;;;;;4992390;28;20240;-77
2024/01/13 06:00:22;;;;;;;40.25;18.70;;;1.30;81.90;;;;;;4983657;28;20238;-77
2024/01/13 06:02:51;;;;;;;37.38;17.95;;;1.30;81.90;;;;;;4987308;28;20194;-77
2024/01/13 06:05:19;;;;;;;32.65;17.70;;;1.30;82.10;;;;;;4988040;28;20207;-77
2024/01/13 06:07:48;;;;;;;34.97;17.70;;;1.40;82.10;;;;;;4988418;28;20601;-77
2024/01/13 06:10:17;;;;;;;34.67;17.60;;;1.40;82.10;;;;;;4989566;28;20204;-77
2024/01/13 06:12:46;;;;;;;36.58;18.08;;;1.40;82.00;;;;;;4989718;28;20240;-77
2024/01/13 06:15:15;;;;;;;35.83;18.35;;;1.40;82.00;;;;;;4980650;28;20245;-77
2024/01/13 06:17:43;;;;;;;36.30;19.38;;;1.40;82.00;;;;;;4984814;28;20652;-76
2024/01/13 06:20:13;;;;;;;38.17;17.65;;;1.50;82.00;;;;;;4988257;28;20304;-76
2024/01/13 06:22:41;;;;;;;37.55;17.90;;;1.50;81.90;;;;;;4984933;28;20216;-76
2024/01/13 06:25:10;;;;;;;35.42;17.45;;;1.50;81.90;;;;;;4987705;28;20289;-76
2024/01/13 06:27:39;;;;;;;31.75;15.82;;;1.50;81.90;;;;;;4987243;28;20314;-76
2024/01/13 06:30:08;;;;;;;32.58;16.27;;;1.50;81.90;;;;;;5004794;28;20312;-77
2024/01/13 06:32:37;;;;;;;34.45;17.88;;;1.40;81.70;;;;;;5009760;28;20242;-78
2024/01/13 06:35:07;;;;;;;35.65;16.63;;;1.40;81.70;;;;;;5014706;28;20234;-78
2024/01/13 06:37:36;;;;;;;32.28;15.45;;;1.40;81.90;;;;;;5005653;28;20223;-77
2024/01/13 06:40:08;;;;;;;34.33;17.52;;;1.40;81.90;;;;;;5003343;28;20208;-77
2024/01/13 06:42:36;;;;;;;33.10;15.10;;;1.40;81.70;;;;;;5008133;28;20204;-77
2024/01/13 06:45:05;;;;;;;34.33;16.00;;;1.40;81.90;;;;;;5006843;28;20282;-77
2024/01/13 06:47:33;;;;;;;33.58;17.13;;;1.40;81.90;;;;;;5007754;28;20346;-77
2024/01/13 06:50:03;;;;;;;28.05;13.82;;;1.40;81.90;;;;;;5022838;28;20245;-77
2024/01/13 06:52:31;;;;;;;25.27;14.10;;;1.40;81.90;;;;;;5007558;28;20234;-77
2024/01/13 06:55:01;;;;;;;25.88;13.52;;;1.40;81.90;;;;;;5015665;28;20307;-76
2024/01/13 06:57:30;;;;;;;20.48;11.93;;;1.40;81.70;;;;;;5008963;28;20257;-77
2024/01/13 06:59:58;;;;;;;22.30;11.30;;;1.40;81.60;;;;;;5005714;28;20679;-77
2024/01/13 07:02:26;;;;;;;20.58;10.70;;;1.40;81.60;;;;;;5006290;28;20249;-77
2024/01/13 07:04:59;;;;;;;27.63;13.23;;;1.40;81.60;;;;;;5002022;28;20235;-77
2024/01/13 07:07:27;;;;;;;27.80;12.48;;;1.40;81.60;;;;;;5004960;28;20197;-77
2024/01/13 07:09:55;;;;;;;25.73;14.10;;;1.40;81.70;;;;;;5007002;28;20201;-77
2024/01/13 07:12:25;;;;;;;25.58;12.73;;;1.40;81.70;;;;;;5023090;28;20236;-77
2024/01/13 07:14:53;;;;;;;22.30;12.70;;;1.40;81.70;;;;;;5002868;28;20254;-77
2024/01/13 07:17:21;;;;;;;19.25;11.27;;;1.40;81.70;;;;;;5007439;28;20243;-77
2024/01/13 07:19:49;;;;;;;21.60;10.85;;;1.40;81.60;;;;;;4997784;28;20793;-78
2024/01/13 07:22:17;;;;;;;19.98;10.60;;;1.40;81.60;;;;;;5001500;28;20198;-77
2024/01/13 07:24:46;;;;;;;17.02;10.65;;;1.50;81.60;;;;;;5004205;28;20902;-77
2024/01/13 07:27:14;;;;;;;17.98;10.27;;;1.50;81.60;;;;;;5001280;28;20215;-77
2024/01/13 07:29:45;;;;;;;16.40;8.98;;;1.50;81.50;;;;;;5000436;28;20976;-77
2024/01/13 07:32:24;;;;;;;19.00;10.27;;;1.50;81.50;;;;;;5002529;28;20223;-77
2024/01/13 07:34:53;;;;;;;16.80;9.25;;;1.50;81.50;;;;;;5003287;28;20289;-77
2024/01/13 07:37:23;;;;;;;18.52;9.80;;;1.50;81.50;;;;;;5004524;28;20876;-77
2024/01/13 07:39:51;;;;;;;16.25;9.30;;;1.50;81.50;;;;;;5005338;28;20631;-76
2024/01/13 07:42:19;;;;;;;16.27;9.52;;;1.50;81.40;;;;;;5021259;28;20540;-77
2024/01/13 07:44:48;;;;;;;18.40;10.43;;;1.50;81.50;;;;;;5002545;28;20214;-77
2024/01/13 07:47:16;;;;;;;16.30;9.13;;;1.50;81.50;;;;;;5018698;28;20216;-76
2024/01/13 07:49:44;;;;;;;16.70;10.07;;;1.50;81.50;;;;;;5003451;28;20211;-77
2024/01/13 07:52:12;;;;;;;18.67;10.02;;;1.50;81.50;;;;;;5006174;28;20223;-76
2024/01/13 07:54:40;;;;;;;29.55;20.65;;;1.50;81.40;;;;;;5015224;28;20663;-76
2024/01/13 07:57:08;;;;;;;36.15;30.55;;;1.50;81.40;;;;;;5004878;28;20209;-76
2024/01/13 07:59:36;;;;;;;83.20;70.20;;;1.50;81.60;;;;;;5003825;28;20294;-76
2024/01/13 08:02:06;;;;;;;55.20;46.00;;;1.60;81.90;;;;;;5006626;28;20240;-78
2024/01/13 08:04:34;;;;;;;41.60;33.35;;;1.70;81.80;;;;;;5001844;28;20207;-77
2024/01/13 08:07:02;;;;;;;17.00;10.45;;;1.70;81.70;;;;;;5003949;28;20211;-77
2024/01/13 08:09:30;;;;;;;16.83;9.23;;;1.70;81.60;;;;;;5001735;28;20556;-76
2024/01/13 08:11:58;;;;;;;15.88;8.63;;;1.70;81.50;;;;;;5005253;28;20208;-77
2024/01/13 08:14:28;;;;;;;13.98;8.32;;;1.70;81.40;;;;;;5000713;28;20237;-77
2024/01/13 08:16:56;;;;;;;16.67;8.27;;;1.70;81.40;;;;;;5000521;28;20221;-77
2024/01/13 08:19:25;;;;;;;14.60;8.52;;;1.60;81.40;;;;;;5003079;28;20227;-76
2024/01/13 08:21:55;;;;;;;17.52;8.70;;;1.60;81.30;;;;;;5003198;28;20243;-77
2024/01/13 08:24:23;;;;;;;14.32;8.35;;;1.60;81.30;;;;;;5003096;28;20642;-77
2024/01/13 08:26:52;;;;;;;15.57;8.50;;;1.60;81.40;;;;;;5001376;28;20292;-76
2024/01/13 08:29:20;;;;;;;13.02;7.20;;;1.60;81.30;;;;;;5005949;28;20209;-77
2024/01/13 08:31:50;;;;;;;14.20;8.10;;;1.60;81.30;;;;;;4996838;28;20312;-77
2024/01/13 08:34:18;;;;;;;15.05;8.50;;;1.60;81.30;;;;;;5003211;28;20324;-77
2024/01/13 08:36:48;;;;;;;14.77;8.55;;;1.60;81.30;;;;;;5006144;28;20651;-76
2024/01/13 08:39:16;;;;;;;14.70;8.27;;;1.60;81.30;;;;;;5000596;28;20223;-76
2024/01/13 08:41:44;;;;;;;13.75;8.60;;;1.60;81.30;;;;;;5001090;28;20242;-77
2024/01/13 08:44:12;;;;;;;13.18;8.32;;;1.60;81.30;;;;;;5002649;28;20202;-77
2024/01/13 08:46:40;;;;;;;15.38;8.15;;;1.60;81.30;;;;;;5000988;28;20209;-77
2024/01/13 08:49:08;;;;;;;16.55;9.15;;;1.60;81.30;;;;;;5014438;28;20231;-77
2024/01/13 08:51:38;;;;;;;13.40;8.35;;;1.60;81.20;;;;;;5005851;28;20301;-77
2024/01/13 08:54:07;;;;;;;13.35;8.10;;;1.60;81.20;;;;;;5004611;28;20673;-77
2024/01/13 08:56:37;;;;;;;15.82;9.55;;;1.60;81.20;;;;;;5001908;28;20637;-77
2024/01/13 08:59:08;;;;;;;14.60;8.15;;;1.60;81.30;;;;;;5000032;28;20219;-77
2024/01/13 09:01:37;;;;;;;15.52;9.32;;;1.60;81.20;;;;;;5000901;28;20545;-77
2024/01/13 09:04:09;;;;;;;18.88;8.93;;;1.60;81.30;;;;;;5002752;28;20202;-76
2024/01/13 09:06:40;;;;;;;18.63;9.85;;;1.60;81.30;;;;;;5002129;28;20205;-77
2024/01/13 09:09:10;;;;;;;13.43;8.10;;;1.60;81.20;;;;;;4999998;28;20236;-76
2024/01/13 09:11:41;;;;;;;14.75;8.65;;;1.60;81.20;;;;;;5001818;28;20276;-77
2024/01/13 09:14:13;;;;;;;14.52;8.52;;;1.70;81.30;;;;;;5004674;28;20228;-77
2024/01/13 09:16:43;;;;;;;15.30;8.35;;;1.70;81.20;;;;;;5002149;28;20277;-77
2024/01/13 09:19:11;;;;;;;16.08;8.68;;;1.70;81.20;;;;;;4999464;28;20232;-77
2024/01/13 09:21:41;;;;;;;14.63;8.05;;;1.70;81.20;;;;;;5002294;28;20274;-77
2024/01/13 09:24:16;;;;;;;17.20;8.70;;;1.70;81.20;;;;;;4997986;28;20209;-77
2024/01/13 09:26:48;;;;;;;17.13;9.00;;;1.70;81.20;;;;;;5004285;28;20641;-77
2024/01/13 09:29:19;;;;;;;16.40;8.98;;;1.70;81.20;;;;;;4999877;28;20247;-76
2024/01/13 09:31:49;;;;;;;14.27;8.98;;;1.70;81.20;;;;;;4999746;28;20228;-76
2024/01/13 09:34:18;;;;;;;16.45;8.45;;;1.70;81.10;;;;;;4999869;28;20217;-76
2024/01/13 09:36:46;;;;;;;14.77;8.57;;;1.70;81.20;;;;;;5002580;28;20547;-76
2024/01/13 09:39:21;;;;;;;15.20;8.45;;;1.70;81.10;;;;;;5001044;28;20207;-76
2024/01/13 09:41:54;;;;;;;19.55;10.18;;;1.70;81.10;;;;;;5002536;28;20293;-76
2024/01/13 09:44:24;;;;;;;14.95;8.32;;;1.80;81.10;;;;;;4999648;28;20232;-76
2024/01/13 09:46:54;;;;;;;15.15;9.40;;;1.70;81.10;;;;;;5000621;28;20245;-76
2024/01/13 09:49:25;;;;;;;15.10;9.13;;;1.70;81.10;;;;;;4999376;28;20278;-76
2024/01/13 09:51:54;;;;;;;16.83;9.90;;;1.80;81.10;;;;;;5006236;28;20809;-76
2024/01/13 09:54:25;;;;;;;17.67;9.40;;;1.80;81.10;;;;;;5004493;28;20825;-76
2024/01/13 09:56:55;;;;;;;14.40;8.73;;;1.80;81.00;;;;;;5007973;28;20213;-76
2024/01/13 09:59:25;;;;;;;16.25;9.25;;;1.80;81.10;;;;;;5017371;28;20215;-76
2024/01/13 10:01:54;;;;;;;16.15;8.77;;;1.80;81.10;;;;;;4999276;28;20245;-76
2024/01/13 10:04:22;;;;;;;15.88;9.32;;;1.80;81.10;;;;;;4998944;28;20199;-76
2024/01/13 10:06:50;;;;;;;17.58;9.68;;;1.80;81.10;;;;;;5002029;28;20213;-76
2024/01/13 10:09:18;;;;;;;17.17;10.18;;;1.70;81.10;;;;;;4999024;28;20203;-76
2024/01/13 10:12:07;;;;;;;19.15;10.00;;;1.80;81.20;;;;;;5018673;28;20230;-76
2024/01/13 10:14:39;;;;;;;15.23;8.57;;;1.80;81.10;;;;;;4998679;28;20225;-76
2024/01/13 10:17:10;;;;;;;17.45;9.27;;;1.80;81.00;;;;;;5001136;28;20206;-76
2024/01/13 10:19:39;;;;;;;22.10;9.75;;;1.80;81.00;;;;;;4998329;28;20795;-76
2024/01/13 10:22:08;;;;;;;16.00;9.25;;;1.80;81.10;;;;;;4998891;28;20209;-76
2024/01/13 10:24:36;;;;;;;16.92;10.07;;;1.80;81.10;;;;;;5004141;28;20658;-75
2024/01/13 10:27:08;;;;;;;18.45;10.23;;;1.90;81.10;;;;;;5003544;28;20543;-76
2024/01/13 10:29:41;;;;;;;13.77;9.32;;;1.90;81.00;;;;;;4999390;28;20269;-76
2024/01/13 10:32:10;;;;;;;14.43;8.55;;;1.90;81.10;;;;;;4999510;28;20229;-76
2024/01/13 10:34:45;;;;;;;17.13;8.73;;;1.90;81.10;;;;;;4997973;28;20233;-77
2024/01/13 10:37:14;;;;;;;17.70;9.05;;;1.90;81.10;;;;;;5001142;28;20215;-76
2024/01/13 10:39:42;;;;;;;17.45;10.00;;;1.90;81.10;;;;;;5004313;28;20195;-76
2024/01/13 10:42:15;;;;;;;12.82;8.02;;;1.90;81.10;;;;;;5016741;28;20617;-76
2024/01/13 10:44:47;;;;;;;17.95;10.13;;;1.90;81.10;;;;;;5001961;28;20307;-76
2024/01/13 10:47:16;;;;;;;18.15;10.32;;;1.90;81.10;;;;;;5001927;28;20201;-76
2024/01/13 10:49:49;;;;;;;16.75;9.98;;;1.90;81.00;;;;;;5002268;28;20215;-76
2024/01/13 10:52:26;;;;;;;15.07;8.43;;;1.90;81.00;;;;;;5005310;28;20757;-77
2024/01/13 10:54:57;;;;;;;21.35;9.98;;;1.90;81.00;;;;;;4999812;28;20566;-76
2024/01/13 10:57:28;;;;;;;14.00;8.60;;;1.90;80.90;;;;;;5003239;28;20306;-76
2024/01/13 10:59:57;;;;;;;15.68;9.13;;;1.90;80.90;;;;;;4999400;28;20243;-76
2024/01/13 11:02:26;;;;;;;15.48;9.50;;;1.90;80.90;;;;;;5002693;28;20706;-76
2024/01/13 11:04:55;;;;;;;14.23;8.80;;;2.00;80.90;;;;;;5004812;28;20280;-75
2024/01/13 11:07:23;;;;;;;14.85;8.80;;;2.00;80.90;;;;;;5004228;28;20212;-76
2024/01/13 11:09:54;;;;;;;14.95;8.98;;;2.00;80.90;;;;;;5002729;28;20205;-76
2024/01/13 11:12:28;;;;;;;13.93;8.70;;;2.00;80.90;;;;;;5001293;28;20215;-76
2024/01/13 11:15:03;;;;;;;15.75;9.27;;;2.00;80.90;;;;;;4999485;28;20235;-76
2024/01/13 11:17:33;;;;;;;12.88;8.60;;;2.00;80.80;;;;;;5000598;28;20210;-77
2024/01/13 11:20:02;;;;;;;14.32;8.23;;;2.00;80.80;;;;;;5004826;28;20212;-76
2024/01/13 11:22:33;;;;;;;14.70;8.80;;;2.00;80.70;;;;;;5005239;28;20268;-76
2024/01/13 11:25:22;;;;;;;13.25;8.30;;;2.00;80.70;;;;;;5003670;28;20207;-76
2024/01/13 11:27:57;;;;;;;16.10;8.95;;;1.90;80.70;;;;;;5001158;28;20740;-76
2024/01/13 11:30:36;;;;;;;14.55;8.07;;;1.90;80.70;;;;;;5003129;28;20520;-76
2024/01/13 11:33:11;;;;;;;11.20;7.20;;;1.90;80.80;;;;;;5007139;28;20307;-76
2024/01/13 11:35:40;;;;;;;12.85;7.97;;;1.90;80.80;;;;;;5005182;28;20230;-76
2024/01/13 11:38:09;;;;;;;12.90;7.57;;;1.90;80.70;;;;;;5001025;28;20205;-77
2024/01/13 11:40:45;;;;;;;14.00;8.95;;;1.90;80.70;;;;;;5005238;28;20202;-76
2024/01/13 11:43:23;;;;;;;16.23;8.90;;;1.90;80.70;;;;;;5020273;28;20625;-76
2024/01/13 11:45:52;;;;;;;12.13;7.90;;;1.90;80.70;;;;;;5001357;28;20226;-76
2024/01/13 11:48:41;;;;;;;13.45;8.65;;;1.90;80.70;;;;;;5000573;28;20219;-76
2024/01/13 11:51:13;;;;;;;15.75;8.70;;;1.90;80.70;;;;;;4999611;28;20252;-76
2024/01/13 11:53:43;;;;;;;13.43;8.52;;;1.90;80.70;;;;;;5004899;28;20804;-76
2024/01/13 11:56:14;;;;;;;12.13;7.72;;;1.90;80.70;;;;;;4998639;28;20221;-75
2024/01/13 11:58:44;;;;;;;21.02;8.50;;;1.90;80.70;;;;;;5003172;28;20215;-76
2024/01/13 12:01:17;;;;;;;15.45;8.95;;;1.90;80.60;;;;;;5003941;28;20234;-76
2024/01/13 12:03:48;;;;;;;14.93;8.52;;;1.90;80.60;;;;;;4999592;28;20209;-76
2024/01/13 12:06:17;;;;;;;14.57;8.23;;;1.90;80.60;;;;;;5002875;28;20201;-76
2024/01/13 12:08:52;;;;;;;12.25;8.02;;;1.90;80.40;;;;;;5021010;28;20546;-76
2024/01/13 12:11:24;;;;;;;14.10;8.63;;;1.90;80.40;;;;;;5001440;28;20223;-76
2024/01/13 12:14:04;;;;;;;15.40;8.75;;;1.90;80.50;;;;;;5002760;28;20205;-77
2024/01/13 12:16:33;;;;;;;14.93;8.40;;;1.90;80.50;;;;;;5002858;28;20232;-76
2024/01/13 12:19:01;;;;;;;15.57;9.02;;;1.80;80.40;;;;;;5005218;28;20221;-77
2024/01/13 12:21:29;;;;;;;12.27;8.80;;;1.80;80.50;;;;;;5005604;28;20985;-76
2024/01/13 12:24:09;;;;;;;13.05;8.70;;;1.80;80.50;;;;;;5018145;28;21172;-76
2024/01/13 12:26:37;;;;;;;13.10;8.07;;;1.80;80.50;;;;;;5007794;28;20237;-77
2024/01/13 12:29:08;;;;;;;13.15;8.77;;;1.80;80.40;;;;;;5002709;28;20214;-76
2024/01/13 12:31:36;;;;;;;13.50;7.85;;;1.80;80.30;;;;;;5014685;28;20227;-76
2024/01/13 12:34:14;;;;;;;15.77;9.57;;;1.80;80.30;;;;;;5007704;28;20217;-76
2024/01/13 12:36:43;;;;;;;17.42;10.10;;;1.80;80.30;;;;;;4999392;28;20233;-76
2024/01/13 12:39:12;;;;;;;15.63;9.40;;;1.80;80.20;;;;;;5000824;28;20202;-76
2024/01/13 12:41:40;;;;;;;15.60;9.00;;;1.80;80.20;;;;;;5001038;28;20231;-76
2024/01/13 12:44:25;;;;;;;16.20;9.70;;;1.80;80.20;;;;;;5002756;28;20209;-76
2024/01/13 12:46:57;;;;;;;12.80;8.43;;;1.80;80.20;;;;;;5018718;28;20650;-76
2024/01/13 12:49:26;;;;;;;17.60;10.15;;;1.80;80.30;;;;;;5000840;28;20204;-76
2024/01/13 12:51:56;;;;;;;13.45;8.30;;;1.80;80.30;;;;;;5001176;28;20281;-76